Time;durP1;ratioP1;P1;durP2;ratioP2;P2;SDS_P1;SDS_P2;PMS_P1;PMS_P2;Temp;Humidity;BMP_temperature;BMP_pressure;BME280_temperature;BME280_humidity;BME280_pressure;Samples;Min_cycle;Max_cycle;Signal;HPM_P1;HPM_P2
2023/08/15 00:00:44;;;;;;;10.38;5.65;;;;;;;21.10;100.00;101016.34;5043345;28;20048;-71
2023/08/15 00:03:09;;;;;;;8.50;4.93;;;;;;;21.14;100.00;101025.91;5040507;28;20603;-72
2023/08/15 00:05:37;;;;;;;9.32;5.93;;;;;;;21.09;100.00;101004.69;5036370;28;20231;-72
2023/08/15 00:08:03;;;;;;;9.43;5.55;;;;;;;21.08;100.00;101000.28;5041127;28;20668;-72
2023/08/15 00:10:28;;;;;;;8.20;5.55;;;;;;;21.02;100.00;100992.69;5042004;28;20024;-71
2023/08/15 00:12:53;;;;;;;7.00;5.28;;;;;;;20.96;100.00;100996.00;5034772;28;20032;-72
2023/08/15 00:15:19;;;;;;;10.38;5.53;;;;;;;20.96;100.00;100996.00;5040914;28;20024;-72
2023/08/15 00:17:44;;;;;;;7.05;5.07;;;;;;;20.95;100.00;100988.88;5030588;28;20559;-72
2023/08/15 00:20:10;;;;;;;9.00;5.28;;;;;;;20.89;100.00;100984.88;5040198;28;20109;-72
2023/08/15 00:22:35;;;;;;;7.95;4.93;;;;;;;20.87;100.00;100995.00;5036255;28;20041;-71
2023/08/15 00:25:01;;;;;;;9.98;5.10;;;;;;;20.89;100.00;101001.09;5038397;28;20035;-73
2023/08/15 00:27:26;;;;;;;12.30;5.72;;;;;;;20.88;100.00;100996.69;5042165;28;20457;-72
2023/08/15 00:29:51;;;;;;;6.60;5.30;;;;;;;20.84;100.00;100997.13;5051675;28;20052;-72
2023/08/15 00:32:17;;;;;;;7.10;5.13;;;;;;;20.81;100.00;101002.81;5051388;28;20028;-72
2023/08/15 00:34:42;;;;;;;7.10;5.10;;;;;;;20.73;100.00;101002.66;5040557;28;20035;-71
2023/08/15 00:37:07;;;;;;;9.52;5.25;;;;;;;20.73;100.00;101002.66;5039858;28;20024;-72
2023/08/15 00:39:33;;;;;;;8.05;5.25;;;;;;;20.65;100.00;101003.38;5038044;28;20460;-73
2023/08/15 00:41:58;;;;;;;8.68;5.18;;;;;;;20.61;100.00;101007.34;5054470;28;20479;-72
2023/08/15 00:44:24;;;;;;;6.95;5.60;;;;;;;20.59;100.00;100995.78;5040997;28;20025;-72
2023/08/15 00:46:49;;;;;;;8.60;5.20;;;;;;;20.45;100.00;101004.28;5032832;28;20012;-71
2023/08/15 00:49:15;;;;;;;5.75;5.25;;;;;;;20.36;100.00;101003.25;5031772;28;20041;-71
2023/08/15 00:51:40;;;;;;;8.32;5.10;;;;;;;20.32;100.00;101012.63;5026950;28;20068;-71
2023/08/15 00:54:06;;;;;;;7.63;5.03;;;;;;;20.22;100.00;101012.56;5033301;28;20048;-72
2023/08/15 00:56:32;;;;;;;9.32;5.60;;;;;;;20.15;100.00;101014.13;5028825;28;20040;-71
2023/08/15 00:58:58;;;;;;;7.47;5.18;;;;;;;20.07;100.00;101013.94;5033272;28;20052;-71
2023/08/15 01:01:24;;;;;;;7.70;5.30;;;;;;;20.02;100.00;101018.88;5024299;28;20036;-72
2023/08/15 01:03:54;;;;;;;9.90;5.25;;;;;;;19.93;100.00;101015.13;5048781;28;20025;-71
2023/08/15 01:06:19;;;;;;;6.72;4.22;;;;;;;19.90;100.00;101010.88;5037067;28;20331;-72
2023/08/15 01:08:45;;;;;;;11.88;5.15;;;;;;;19.87;100.00;101013.00;5032502;28;20030;-70
2023/08/15 01:11:10;;;;;;;10.70;4.85;;;;;;;19.81;99.34;101010.81;5042522;28;20239;-70
2023/08/15 01:13:45;;;;;;;8.98;4.28;;;;;;;19.73;98.15;101006.09;5038078;28;20016;-71
2023/08/15 01:16:21;;;;;;;7.10;4.10;;;;;;;19.65;95.23;100995.09;5029181;28;20041;-71
2023/08/15 01:19:01;;;;;;;7.72;4.15;;;;;;;19.60;93.36;100991.88;5041762;28;20087;-71
2023/08/15 01:21:33;;;;;;;7.22;3.30;;;;;;;19.51;91.75;100988.16;5035602;28;20025;-71
2023/08/15 01:23:59;;;;;;;9.98;4.30;;;;;;;19.49;89.78;100995.53;5039531;28;20028;-70
2023/08/15 01:26:24;;;;;;;9.15;3.88;;;;;;;19.45;90.75;101004.88;5050840;28;20492;-71
2023/08/15 01:28:51;;;;;;;6.45;3.25;;;;;;;19.37;89.15;101012.78;5040663;28;20662;-71
2023/08/15 01:31:26;;;;;;;6.38;3.50;;;;;;;19.38;88.41;101017.19;5042984;28;20491;-71
2023/08/15 01:34:05;;;;;;;8.40;3.38;;;;;;;19.37;89.11;101029.81;5040424;28;20024;-70
2023/08/15 01:36:36;;;;;;;8.02;2.75;;;;;;;19.30;87.25;101033.16;5031940;28;20044;-71
2023/08/15 01:39:04;;;;;;;7.80;3.92;;;;;;;19.29;87.20;101055.75;5045808;28;20032;-72
2023/08/15 01:41:33;;;;;;;10.05;3.20;;;;;;;19.30;87.47;101062.84;5043614;28;20073;-71
2023/08/15 01:44:00;;;;;;;5.95;2.97;;;;;;;19.31;87.08;101059.16;5042168;28;20162;-71
2023/08/15 01:46:26;;;;;;;6.30;3.17;;;;;;;19.32;86.66;101061.75;5049736;28;20177;-71
2023/08/15 01:48:51;;;;;;;7.72;3.13;;;;;;;19.38;87.17;101065.75;5042023;28;20098;-71
2023/08/15 01:51:17;;;;;;;7.55;2.92;;;;;;;19.34;87.20;101059.75;5040436;28;20334;-72
2023/08/15 01:53:42;;;;;;;6.93;3.05;;;;;;;19.43;88.58;101074.31;5049668;28;20530;-73
2023/08/15 01:56:09;;;;;;;7.85;3.17;;;;;;;19.34;87.55;101065.16;5034815;28;20029;-72
2023/08/15 01:58:34;;;;;;;7.60;3.10;;;;;;;19.35;88.24;101063.31;5053649;28;20025;-72
2023/08/15 02:01:02;;;;;;;6.03;3.17;;;;;;;19.26;88.89;101080.28;5053785;28;20079;-72
2023/08/15 02:03:27;;;;;;;6.13;3.05;;;;;;;19.29;89.05;101082.75;5048280;28;20036;-71
2023/08/15 02:05:56;;;;;;;7.82;3.30;;;;;;;19.27;89.31;101082.88;5034147;28;20487;-71
2023/08/15 02:08:22;;;;;;;7.18;3.10;;;;;;;19.30;89.17;101082.59;5044859;28;20044;-71
2023/08/15 02:10:49;;;;;;;7.85;3.15;;;;;;;19.26;89.62;101083.00;5038405;28;20082;-72
2023/08/15 02:13:14;;;;;;;7.88;3.25;;;;;;;19.24;89.58;101091.22;5046006;28;20479;-71
2023/08/15 02:15:40;;;;;;;7.28;3.25;;;;;;;19.20;89.67;101092.47;5051237;28;20226;-71
2023/08/15 02:18:06;;;;;;;5.82;2.85;;;;;;;19.20;90.53;101083.50;5044365;28;20109;-71
2023/08/15 02:20:31;;;;;;;8.25;3.00;;;;;;;19.16;90.73;101094.56;5045266;28;20036;-72
2023/08/15 02:22:57;;;;;;;8.15;2.95;;;;;;;19.15;90.34;101110.88;5032866;28;20017;-71
2023/08/15 02:25:22;;;;;;;7.68;3.10;;;;;;;19.12;91.29;101111.13;5035607;28;20031;-71
2023/08/15 02:27:48;;;;;;;7.38;3.30;;;;;;;19.08;91.34;101115.91;5031267;28;20039;-72
2023/08/15 02:30:13;;;;;;;8.52;3.10;;;;;;;19.04;91.26;101105.50;5051055;28;20039;-71
2023/08/15 02:32:39;;;;;;;9.35;3.20;;;;;;;19.03;92.14;101107.34;5049695;28;20029;-71
2023/08/15 02:35:05;;;;;;;7.57;3.55;;;;;;;18.96;92.78;101106.13;5038632;28;20029;-70
2023/08/15 02:37:30;;;;;;;6.70;3.05;;;;;;;18.92;93.58;101091.19;5039938;28;20170;-70
2023/08/15 02:39:56;;;;;;;8.55;3.47;;;;;;;18.86;94.09;101092.56;5051410;28;20032;-70
2023/08/15 02:42:21;;;;;;;9.25;3.75;;;;;;;18.81;94.12;101083.97;5046799;28;20119;-71
2023/08/15 02:44:46;;;;;;;10.27;3.70;;;;;;;18.83;93.94;101084.69;5045961;28;20499;-70
2023/08/15 02:47:12;;;;;;;7.85;3.47;;;;;;;18.75;94.73;101087.16;5040069;28;20046;-71
2023/08/15 02:49:38;;;;;;;7.75;3.42;;;;;;;18.75;94.88;101091.69;5059511;28;20049;-72
2023/08/15 02:52:04;;;;;;;7.78;3.70;;;;;;;18.72;95.45;101094.63;5049928;28;20043;-71
2023/08/15 02:54:30;;;;;;;11.65;4.38;;;;;;;18.69;95.78;101089.47;5051578;28;20024;-71
2023/08/15 02:56:55;;;;;;;7.53;3.70;;;;;;;18.61;96.27;101090.94;5054543;28;20358;-71
2023/08/15 02:59:21;;;;;;;6.47;3.55;;;;;;;18.61;96.10;101104.44;5046772;28;20032;-70
2023/08/15 03:01:47;;;;;;;8.38;4.00;;;;;;;18.54;96.95;101105.91;5039172;28;20043;-71
2023/08/15 03:04:13;;;;;;;10.98;3.88;;;;;;;18.54;97.67;101113.97;5042512;28;20108;-70
2023/08/15 03:06:38;;;;;;;9.75;3.88;;;;;;;18.48;98.22;101108.25;5041597;28;20536;-71
2023/08/15 03:09:04;;;;;;;9.02;4.05;;;;;;;18.47;99.00;101096.56;5046215;28;20037;-73
2023/08/15 03:11:29;;;;;;;9.45;4.35;;;;;;;18.39;99.76;101102.59;5040307;28;20034;-70
2023/08/15 03:13:55;;;;;;;8.15;4.00;;;;;;;18.36;99.96;101093.91;5050569;28;20021;-71
2023/08/15 03:16:24;;;;;;;8.27;3.92;;;;;;;18.32;100.00;101092.44;5049734;28;20029;-71
2023/08/15 03:18:49;;;;;;;6.20;3.80;;;;;;;18.34;100.00;101102.09;5045712;28;20039;-71
2023/08/15 03:21:14;;;;;;;8.77;3.85;;;;;;;18.36;100.00;101104.69;5047133;28;20032;-70
2023/08/15 03:23:40;;;;;;;9.77;4.53;;;;;;;18.36;100.00;101100.16;5042291;28;20412;-71
2023/08/15 03:26:06;;;;;;;8.30;3.65;;;;;;;18.39;100.00;101101.72;5050514;28;20413;-71
2023/08/15 03:28:34;;;;;;;7.57;3.70;;;;;;;18.39;100.00;101102.59;5048167;28;20021;-71
2023/08/15 03:31:09;;;;;;;6.75;3.65;;;;;;;18.38;100.00;101106.25;5051255;28;20116;-71
2023/08/15 03:33:35;;;;;;;7.05;3.78;;;;;;;18.39;100.00;101097.22;5047263;28;20551;-71
2023/08/15 03:36:01;;;;;;;9.10;3.60;;;;;;;18.40;100.00;101095.38;5041153;28;20082;-70
2023/08/15 03:38:26;;;;;;;8.23;3.30;;;;;;;18.40;100.00;101103.47;5047479;28;20036;-71
2023/08/15 03:41:02;;;;;;;7.15;3.17;;;;;;;18.37;100.00;101101.84;5041797;28;20349;-71
2023/08/15 03:43:28;;;;;;;8.52;3.67;;;;;;;18.31;100.00;101107.75;5053340;28;20051;-71
2023/08/15 03:45:54;;;;;;;7.63;3.67;;;;;;;18.26;100.00;101101.84;5046429;28;20106;-71
2023/08/15 03:48:19;;;;;;;8.68;3.53;;;;;;;18.19;100.00;101103.31;5031906;28;20263;-71
2023/08/15 03:50:45;;;;;;;11.50;4.10;;;;;;;18.18;100.00;101106.97;5046701;28;20041;-71
2023/08/15 03:53:10;;;;;;;8.60;3.90;;;;;;;18.16;100.00;101101.72;5048542;28;20032;-72
2023/08/15 03:55:35;;;;;;;8.88;3.55;;;;;;;18.08;100.00;101100.59;5045032;28;20758;-72
2023/08/15 03:58:01;;;;;;;8.35;3.85;;;;;;;18.02;100.00;101101.94;5051447;28;20492;-71
2023/08/15 04:00:26;;;;;;;9.07;3.88;;;;;;;17.90;100.00;101100.22;5040455;28;20037;-71
2023/08/15 04:02:51;;;;;;;8.73;4.15;;;;;;;17.90;100.00;101106.44;5038279;28;20082;-70
2023/08/15 04:05:17;;;;;;;7.70;4.07;;;;;;;17.78;100.00;101099.31;5039772;28;20016;-70
2023/08/15 04:07:43;;;;;;;10.23;4.32;;;;;;;17.76;100.00;101106.63;5038276;28;20094;-72
2023/08/15 04:10:11;;;;;;;9.30;4.28;;;;;;;17.69;100.00;101110.78;5050971;28;20495;-71
2023/08/15 04:12:37;;;;;;;9.00;4.35;;;;;;;17.66;100.00;101106.47;5048997;28;20039;-72
2023/08/15 04:15:03;;;;;;;9.75;4.40;;;;;;;17.66;100.00;101106.47;5045258;28;20029;-70
2023/08/15 04:17:28;;;;;;;8.73;4.50;;;;;;;17.59;100.00;101099.81;5039121;28;20075;-70
2023/08/15 04:19:54;;;;;;;8.75;4.97;;;;;;;17.57;100.00;101095.56;5047627;28;20025;-70
2023/08/15 04:22:19;;;;;;;9.02;4.32;;;;;;;17.56;100.00;101110.84;5054510;28;20059;-70
2023/08/15 04:24:45;;;;;;;9.63;4.55;;;;;;;17.51;100.00;101114.84;5041488;28;20029;-72
2023/08/15 04:27:10;;;;;;;11.80;4.82;;;;;;;17.54;100.00;101109.22;5044862;28;20356;-72
2023/08/15 04:29:36;;;;;;;9.05;4.70;;;;;;;17.52;100.00;101127.34;5053394;28;20100;-71
2023/08/15 04:32:01;;;;;;;11.90;4.82;;;;;;;17.51;100.00;101129.16;5042442;28;20514;-70
2023/08/15 04:34:26;;;;;;;11.13;4.70;;;;;;;17.51;100.00;101120.22;5045486;28;20036;-70
2023/08/15 04:36:52;;;;;;;11.00;5.20;;;;;;;17.53;100.00;101131.75;5057285;28;20394;-71
2023/08/15 04:39:18;;;;;;;12.40;4.90;;;;;;;17.53;100.00;101131.75;5037762;28;20120;-71
2023/08/15 04:41:43;;;;;;;7.85;4.57;;;;;;;17.47;100.00;101129.50;5029985;28;20500;-71
2023/08/15 04:44:10;;;;;;;9.82;5.00;;;;;;;17.50;100.00;101140.03;5051771;28;20024;-71
2023/08/15 04:46:36;;;;;;;10.13;4.90;;;;;;;17.51;100.00;101144.44;5030989;28;20033;-70
2023/08/15 04:49:01;;;;;;;15.35;5.22;;;;;;;17.45;100.00;101145.78;5046953;28;20029;-71
2023/08/15 04:51:26;;;;;;;7.85;4.53;;;;;;;17.37;100.00;101154.41;5056243;28;20399;-71
2023/08/15 04:53:52;;;;;;;8.65;4.38;;;;;;;17.42;100.00;101151.38;5030369;28;20381;-70
2023/08/15 04:56:17;;;;;;;7.80;4.30;;;;;;;17.38;100.00;101164.19;5046772;28;20021;-71
2023/08/15 04:58:43;;;;;;;9.02;4.47;;;;;;;17.35;100.00;101177.91;5036225;28;20080;-70
2023/08/15 05:01:09;;;;;;;9.18;4.93;;;;;;;17.34;100.00;101178.84;5048403;28;20036;-70
2023/08/15 05:03:35;;;;;;;9.90;4.38;;;;;;;17.27;100.00;101182.97;5044325;28;20512;-73
2023/08/15 05:06:02;;;;;;;9.48;4.85;;;;;;;17.24;100.00;101183.19;5042273;28;20020;-70
2023/08/15 05:08:27;;;;;;;10.07;5.20;;;;;;;17.22;100.00;101182.44;5045632;28;20095;-70
2023/08/15 05:10:54;;;;;;;9.95;5.53;;;;;;;17.19;100.00;101188.06;5049372;28;20519;-70
2023/08/15 05:13:19;;;;;;;11.80;4.80;;;;;;;17.17;100.00;101192.69;5031340;28;20033;-70
2023/08/15 05:15:44;;;;;;;11.13;4.72;;;;;;;17.21;100.00;101202.25;5042387;28;20502;-71
2023/08/15 05:18:11;;;;;;;8.68;4.63;;;;;;;17.23;100.00;101208.38;5033473;28;20048;-71
2023/08/15 05:20:36;;;;;;;7.72;4.53;;;;;;;17.25;100.00;101214.50;5037157;28;20254;-70
2023/08/15 05:23:02;;;;;;;9.80;4.60;;;;;;;17.27;100.00;101212.56;5040841;28;20027;-71
2023/08/15 05:25:27;;;;;;;9.15;4.43;;;;;;;17.28;100.00;101219.66;5044100;28;20549;-71
2023/08/15 05:27:54;;;;;;;7.30;4.82;;;;;;;17.34;100.00;101221.91;5037279;28;20051;-70
2023/08/15 05:30:20;;;;;;;11.82;4.40;;;;;;;17.36;100.00;101219.97;5039701;28;20500;-72
2023/08/15 05:32:45;;;;;;;10.68;4.75;;;;;;;17.43;100.00;101228.44;5023330;28;20025;-71
2023/08/15 05:35:12;;;;;;;10.48;4.90;;;;;;;17.53;100.00;101236.69;5036523;28;20315;-71
2023/08/15 05:37:38;;;;;;;11.02;4.97;;;;;;;17.59;100.00;101225.47;5032060;28;20020;-71
2023/08/15 05:40:04;;;;;;;7.95;4.82;;;;;;;17.81;100.00;101222.09;5030133;28;20041;-71
2023/08/15 05:42:30;;;;;;;10.68;5.45;;;;;;;17.98;100.00;101220.81;5039433;28;20056;-71
2023/08/15 05:44:55;;;;;;;8.38;5.35;;;;;;;18.13;100.00;101219.63;5040319;28;20266;-71
2023/08/15 05:47:24;;;;;;;9.90;5.60;;;;;;;18.25;100.00;101213.28;5036199;28;20108;-69
2023/08/15 05:49:49;;;;;;;9.95;4.97;;;;;;;18.41;100.00;101219.22;5014243;28;20041;-70
2023/08/15 05:52:15;;;;;;;10.48;5.38;;;;;;;18.51;100.00;101226.56;5032417;28;20025;-70
2023/08/15 05:54:40;;;;;;;11.02;5.50;;;;;;;18.61;100.00;101230.28;5035797;28;20495;-72
2023/08/15 05:57:05;;;;;;;8.20;5.43;;;;;;;18.72;100.00;101232.16;5048829;28;20465;-71
2023/08/15 05:59:31;;;;;;;8.98;4.95;;;;;;;18.89;100.00;101237.94;5030744;28;20095;-72
2023/08/15 06:01:56;;;;;;;9.15;5.00;;;;;;;19.02;100.00;101236.94;5037968;28;20393;-71
2023/08/15 06:04:22;;;;;;;9.98;4.82;;;;;;;19.15;100.00;101243.09;5037399;28;20577;-70
2023/08/15 06:06:47;;;;;;;7.07;4.88;;;;;;;19.19;99.37;101241.88;5035564;28;20029;-71
2023/08/15 06:09:13;;;;;;;10.57;4.90;;;;;;;19.33;98.74;101241.59;5030125;28;20125;-70
2023/08/15 06:11:39;;;;;;;11.02;4.85;;;;;;;19.37;98.62;101244.91;5025927;28;20028;-69
2023/08/15 06:14:04;;;;;;;11.73;5.10;;;;;;;19.47;97.74;101247.69;5044996;28;20061;-70
2023/08/15 06:16:29;;;;;;;8.68;4.53;;;;;;;19.61;96.85;101245.63;5051802;28;20071;-72
2023/08/15 06:18:55;;;;;;;8.60;4.60;;;;;;;19.78;95.62;101254.16;5035366;28;20228;-71
2023/08/15 06:21:21;;;;;;;8.00;4.25;;;;;;;19.84;95.53;101248.25;5036178;28;20467;-70
2023/08/15 06:23:46;;;;;;;10.52;4.68;;;;;;;19.98;94.58;101252.47;5037369;28;20079;-70
2023/08/15 06:26:11;;;;;;;11.07;4.40;;;;;;;19.85;94.91;101252.66;5036915;28;20487;-70
2023/08/15 06:28:37;;;;;;;10.43;5.53;;;;;;;19.72;94.19;101251.97;5029157;28;20104;-70
2023/08/15 06:31:02;;;;;;;9.23;4.32;;;;;;;19.75;94.95;101255.28;5041005;28;20069;-70
2023/08/15 06:33:27;;;;;;;9.05;3.97;;;;;;;19.93;95.09;101255.56;5052650;28;20024;-71
2023/08/15 06:35:53;;;;;;;8.80;4.15;;;;;;;20.12;93.93;101249.50;5034549;28;20029;-71
2023/08/15 06:38:18;;;;;;;10.20;4.07;;;;;;;20.21;92.90;101253.25;5041684;28;20038;-70
2023/08/15 06:40:43;;;;;;;9.18;4.05;;;;;;;20.32;92.48;101267.59;5043383;28;20037;-71
2023/08/15 06:43:09;;;;;;;11.43;4.35;;;;;;;20.54;91.52;101265.78;5044856;28;20031;-71
2023/08/15 06:45:36;;;;;;;8.02;4.13;;;;;;;20.63;91.38;101263.13;5045971;28;20029;-71
2023/08/15 06:48:02;;;;;;;10.07;3.90;;;;;;;20.60;89.94;101268.78;5045013;28;20032;-71
2023/08/15 06:50:28;;;;;;;7.70;3.58;;;;;;;20.77;89.96;101272.72;5041861;28;20461;-72
2023/08/15 06:52:53;;;;;;;10.38;4.18;;;;;;;20.95;89.29;101266.72;5037826;28;20129;-71
2023/08/15 06:55:19;;;;;;;9.27;4.13;;;;;;;20.98;87.88;101270.00;5042052;28;20065;-71
2023/08/15 06:57:44;;;;;;;9.07;4.60;;;;;;;20.98;88.03;101275.41;5040259;28;20107;-71
2023/08/15 07:00:12;;;;;;;10.73;4.43;;;;;;;21.19;86.80;101267.22;5038202;28;20438;-70
2023/08/15 07:02:37;;;;;;;11.77;4.18;;;;;;;21.34;86.68;101270.47;5037013;28;20025;-71
2023/08/15 07:05:07;;;;;;;9.68;3.65;;;;;;;21.36;84.43;101272.06;5035290;28;20033;-72
2023/08/15 07:07:33;;;;;;;10.40;4.15;;;;;;;21.38;85.64;101270.06;5039268;28;20097;-72
2023/08/15 07:09:58;;;;;;;8.45;4.03;;;;;;;21.66;84.83;101278.41;5035896;28;20055;-72
2023/08/15 07:12:23;;;;;;;11.43;4.32;;;;;;;21.91;83.25;101287.00;5041075;28;21372;-71
2023/08/15 07:14:49;;;;;;;13.38;5.90;;;;;;;22.37;83.23;101287.19;5045078;28;20348;-72
2023/08/15 07:17:14;;;;;;;9.07;4.05;;;;;;;22.69;79.70;101271.56;5039794;28;20531;-72
2023/08/15 07:19:39;;;;;;;7.68;3.03;;;;;;;23.19;77.95;101280.28;5048214;28;20335;-70
2023/08/15 07:22:05;;;;;;;9.57;3.17;;;;;;;23.36;74.04;101284.06;5047582;28;20176;-72
2023/08/15 07:24:30;;;;;;;8.32;3.75;;;;;;;23.47;74.09;101293.91;5044701;28;20040;-72
2023/08/15 07:26:56;;;;;;;7.32;3.10;;;;;;;23.67;72.09;101292.81;5039660;28;20025;-71
2023/08/15 07:29:24;;;;;;;7.40;3.00;;;;;;;23.80;72.93;101293.31;5049821;28;20017;-71
2023/08/15 07:31:49;;;;;;;8.20;3.08;;;;;;;24.12;72.50;101297.38;5047315;28;20502;-73
2023/08/15 07:34:15;;;;;;;7.97;3.05;;;;;;;24.85;69.91;101298.00;5042269;28;20078;-73
2023/08/15 07:36:40;;;;;;;7.30;2.78;;;;;;;25.37;67.18;101299.00;5045430;28;20318;-72
2023/08/15 07:39:05;;;;;;;5.10;2.30;;;;;;;25.80;63.71;101301.56;5043170;28;20526;-71
2023/08/15 07:41:31;;;;;;;6.90;2.80;;;;;;;25.73;63.02;101308.66;5035475;28;20083;-72
2023/08/15 07:43:57;;;;;;;6.15;2.63;;;;;;;25.44;63.98;101310.94;5042094;28;20021;-71
2023/08/15 07:46:22;;;;;;;7.10;2.25;;;;;;;25.40;64.52;101309.56;5042959;28;20033;-71
2023/08/15 07:48:48;;;;;;;7.05;2.60;;;;;;;25.62;64.74;101297.22;5029108;28;20021;-72
2023/08/15 07:51:13;;;;;;;7.05;3.13;;;;;;;25.53;64.21;101285.44;5029180;28;20158;-70
2023/08/15 07:53:39;;;;;;;6.07;2.70;;;;;;;24.97;65.75;101301.31;5044838;28;20058;-72
2023/08/15 07:56:04;;;;;;;6.97;2.40;;;;;;;24.63;67.52;101316.72;5044176;28;20025;-72
2023/08/15 07:58:31;;;;;;;7.07;2.53;;;;;;;24.46;68.82;101315.75;5055071;28;20020;-71
2023/08/15 08:00:57;;;;;;;6.53;2.40;;;;;;;24.33;68.28;101314.25;5041122;28;20028;-71
2023/08/15 08:03:22;;;;;;;8.45;2.65;;;;;;;24.24;68.80;101315.16;5052455;28;20043;-71
2023/08/15 08:05:48;;;;;;;6.30;2.80;;;;;;;24.19;68.93;101314.75;5049173;28;20027;-72
2023/08/15 08:08:14;;;;;;;6.97;2.85;;;;;;;24.18;68.28;101314.94;5041868;28;20162;-72
2023/08/15 08:10:39;;;;;;;8.55;2.92;;;;;;;24.15;69.24;101335.13;5036148;28;20403;-72
2023/08/15 08:13:06;;;;;;;7.30;2.55;;;;;;;24.10;69.23;101322.00;5040146;28;20044;-72
2023/08/15 08:15:32;;;;;;;6.97;2.55;;;;;;;24.02;69.46;101318.34;5039398;28;20025;-70
2023/08/15 08:17:58;;;;;;;6.85;2.35;;;;;;;23.80;70.05;101328.63;5041901;28;20506;-71
2023/08/15 08:20:25;;;;;;;8.30;2.60;;;;;;;23.79;70.37;101324.22;5043382;28;20033;-72
2023/08/15 08:22:50;;;;;;;8.45;2.97;;;;;;;23.64;70.23;101325.69;5036072;28;20104;-72
2023/08/15 08:25:21;;;;;;;8.05;2.67;;;;;;;23.63;72.00;101329.44;5046205;28;20057;-73
2023/08/15 08:27:48;;;;;;;6.63;2.58;;;;;;;23.73;70.80;101326.69;5065000;28;20047;-72
2023/08/15 08:30:17;;;;;;;5.90;2.60;;;;;;;23.93;71.00;101331.00;5058159;28;20032;-71
2023/08/15 08:32:43;;;;;;;9.55;3.10;;;;;;;24.16;69.56;101320.53;5052279;28;20366;-72
2023/08/15 08:35:10;;;;;;;7.68;2.75;;;;;;;24.19;69.48;101317.50;5047897;28;20032;-73
2023/08/15 08:37:35;;;;;;;6.63;2.67;;;;;;;24.24;69.22;101323.31;5046598;28;20029;-71
2023/08/15 08:40:01;;;;;;;6.20;2.60;;;;;;;24.22;68.47;101319.91;5047676;28;20021;-71
2023/08/15 08:42:27;;;;;;;8.80;2.65;;;;;;;24.48;68.58;101325.44;5047909;28;20415;-72
2023/08/15 08:44:55;;;;;;;6.70;2.78;;;;;;;24.68;68.15;101326.13;5043893;28;20029;-72
2023/08/15 08:47:24;;;;;;;4.97;2.85;;;;;;;24.84;67.35;101320.78;5044741;28;20247;-72
2023/08/15 08:49:52;;;;;;;7.53;3.20;;;;;;;24.88;66.31;101325.94;5045859;28;20591;-73
2023/08/15 08:52:18;;;;;;;7.97;2.88;;;;;;;24.68;66.72;101326.13;5043463;28;20044;-73
2023/08/15 08:54:45;;;;;;;7.28;2.67;;;;;;;24.56;67.71;101328.22;5053040;28;20029;-73
2023/08/15 08:57:11;;;;;;;6.63;2.60;;;;;;;24.52;67.35;101332.28;5040226;28;20068;-72
2023/08/15 08:59:39;;;;;;;7.97;3.00;;;;;;;24.40;67.22;101330.81;5047981;28;20021;-73
2023/08/15 09:02:09;;;;;;;5.18;2.63;;;;;;;24.33;68.02;101327.00;5035168;28;20079;-72
2023/08/15 09:04:35;;;;;;;8.02;3.25;;;;;;;24.75;67.99;101329.06;5033959;28;20040;-71
2023/08/15 09:07:00;;;;;;;10.15;3.08;;;;;;;25.23;66.15;101331.28;5051903;28;20039;-72
2023/08/15 09:09:26;;;;;;;7.40;3.05;;;;;;;25.35;64.87;101331.84;5040135;28;20022;-73
2023/08/15 09:11:51;;;;;;;7.18;2.85;;;;;;;25.25;64.59;101336.59;5038078;28;20028;-72
2023/08/15 09:14:18;;;;;;;6.13;2.72;;;;;;;25.30;64.10;101332.34;5042914;28;20025;-71
2023/08/15 09:16:48;;;;;;;10.43;3.83;;;;;;;25.23;64.03;101342.19;5047262;28;20020;-72
2023/08/15 09:19:16;;;;;;;6.70;3.22;;;;;;;25.24;65.29;101340.31;5040473;28;20048;-71
2023/08/15 09:21:42;;;;;;;6.18;3.13;;;;;;;25.82;64.69;101345.88;5043676;28;20317;-73
2023/08/15 09:24:08;;;;;;;6.35;2.70;;;;;;;26.44;61.28;101348.25;5050776;28;20533;-72
2023/08/15 09:26:35;;;;;;;7.55;2.72;;;;;;;26.67;60.45;101362.09;5057602;28;20111;-72
2023/08/15 09:29:02;;;;;;;7.32;2.97;;;;;;;26.70;60.33;101372.66;5039022;28;20025;-72
2023/08/15 09:31:28;;;;;;;6.75;2.88;;;;;;;26.57;60.09;101358.69;5032125;28;20108;-72
2023/08/15 09:33:54;;;;;;;7.25;2.80;;;;;;;26.68;60.67;101362.97;5038707;28;20017;-73
2023/08/15 09:36:19;;;;;;;7.20;2.65;;;;;;;27.27;58.15;101369.91;5039172;28;20506;-73
2023/08/15 09:38:45;;;;;;;6.82;2.55;;;;;;;27.13;57.68;101378.84;5039869;28;20025;-72
2023/08/15 09:41:12;;;;;;;8.35;2.97;;;;;;;27.90;57.45;101368.16;5038532;28;20037;-72
2023/08/15 09:43:50;;;;;;;5.88;2.35;;;;;;;29.01;54.61;101375.97;5051177;28;20028;-73
2023/08/15 09:46:16;;;;;;;6.22;2.50;;;;;;;28.63;52.14;101372.31;5036019;28;20032;-72
2023/08/15 09:48:44;;;;;;;8.00;2.65;;;;;;;28.56;53.62;101374.09;5056117;28;20372;-72
2023/08/15 09:51:11;;;;;;;7.80;2.80;;;;;;;29.16;52.18;101381.47;5043542;28;20511;-72
2023/08/15 09:53:38;;;;;;;4.80;2.53;;;;;;;29.19;50.66;101386.59;5033788;28;20112;-72
2023/08/15 09:56:04;;;;;;;5.50;2.45;;;;;;;29.38;50.73;101387.91;5034454;28;20021;-72
2023/08/15 09:58:29;;;;;;;8.57;2.78;;;;;;;30.09;48.00;101399.22;5040186;28;20032;-72
2023/08/15 10:00:55;;;;;;;5.65;2.47;;;;;;;30.15;47.27;101397.66;5044202;28;20021;-71
2023/08/15 10:03:34;;;;;;;8.00;2.85;;;;;;;29.96;48.97;101404.56;5035135;28;20044;-71
2023/08/15 10:06:02;;;;;;;6.47;2.63;;;;;;;29.94;48.50;101409.41;5037638;28;20036;-72
2023/08/15 10:08:28;;;;;;;9.00;3.03;;;;;;;29.82;48.04;101403.53;5043109;28;20028;-72
2023/08/15 10:10:57;;;;;;;7.35;2.92;;;;;;;29.75;48.14;101411.69;5034333;28;20383;-73
2023/08/15 10:13:31;;;;;;;18.98;12.60;;;;;;;29.96;48.30;101399.91;5042863;28;20040;-72
2023/08/15 10:15:58;;;;;;;13.05;6.45;;;;;;;30.67;46.67;101405.59;5039860;28;20036;-73
2023/08/15 10:18:24;;;;;;;6.50;3.10;;;;;;;30.93;44.57;101410.50;5045713;28;20024;-72
2023/08/15 10:20:51;;;;;;;5.55;2.72;;;;;;;30.86;44.34;101414.28;5027152;28;20025;-70
2023/08/15 10:23:30;;;;;;;6.60;3.05;;;;;;;30.33;45.91;101408.19;5045974;28;20036;-71
2023/08/15 10:25:57;;;;;;;7.47;3.10;;;;;;;30.76;45.81;101414.59;5039239;28;20020;-73
2023/08/15 10:28:22;;;;;;;5.15;2.90;;;;;;;30.45;45.62;101417.63;5042046;28;20056;-72
2023/08/15 10:30:48;;;;;;;6.88;2.85;;;;;;;30.93;45.08;101421.50;5035642;28;20096;-73
2023/08/15 10:33:14;;;;;;;5.20;2.50;;;;;;;32.05;43.89;101423.34;5038435;28;20496;-73
2023/08/15 10:35:50;;;;;;;6.50;2.80;;;;;;;31.97;42.59;101426.28;5036523;28;20451;-71
2023/08/15 10:38:18;;;;;;;7.07;3.03;;;;;;;31.50;42.43;101422.41;5048119;28;20040;-72
2023/08/15 10:40:44;;;;;;;8.98;3.40;;;;;;;31.45;42.94;101416.66;5041320;28;20043;-72
2023/08/15 10:43:11;;;;;;;8.35;3.05;;;;;;;32.79;41.52;101419.75;5043528;28;20526;-71
2023/08/15 10:45:38;;;;;;;6.47;2.60;;;;;;;34.02;38.87;101413.69;5043922;28;20486;-73
2023/08/15 10:48:05;;;;;;;6.70;2.40;;;;;;;34.60;38.32;101414.44;5047665;28;20025;-72
2023/08/15 10:50:30;;;;;;;5.90;2.58;;;;;;;35.03;35.63;101422.03;5039038;28;20040;-72
2023/08/15 10:53:00;;;;;;;4.78;2.47;;;;;;;35.67;35.30;101415.25;5034172;28;20022;-73
2023/08/15 10:55:27;;;;;;;5.35;2.53;;;;;;;35.21;34.67;101424.00;5040419;28;20020;-71
2023/08/15 10:57:55;;;;;;;7.97;2.72;;;;;;;34.89;35.57;101423.19;5043812;28;20016;-72
2023/08/15 11:00:25;;;;;;;7.97;2.60;;;;;;;35.32;35.34;101422.38;5033725;28;20056;-72
2023/08/15 11:02:54;;;;;;;7.68;2.55;;;;;;;35.19;34.64;101421.44;5034678;28;20044;-75
2023/08/15 11:05:38;;;;;;;6.55;3.42;;;;;;;35.36;36.18;101426.41;5039984;28;20024;-73
2023/08/15 11:08:10;;;;;;;6.57;2.53;;;;;;;34.76;35.68;101415.81;5049232;28;20160;-73
2023/08/15 11:10:35;;;;;;;7.13;3.30;;;;;;;34.61;35.84;101413.41;5029160;28;20025;-72
2023/08/15 11:13:01;;;;;;;6.00;2.75;;;;;;;34.59;34.66;101409.16;5043439;28;20557;-71
2023/08/15 11:15:26;;;;;;;5.60;2.47;;;;;;;34.47;36.13;101417.28;5049596;28;20653;-72
2023/08/15 11:17:53;;;;;;;7.82;3.17;;;;;;;34.63;35.62;101416.78;5043456;28;20556;-72